sensor_id;sensor_type;location;lat;lon;timestamp;temperature;humidity
60242;SHT30;46103;52.076;113.488;2023-12-29T00:01:04;-16.46;70.24
60242;SHT30;46103;52.076;113.488;2023-12-29T00:04:29;-16.44;70.64
60242;SHT30;46103;52.076;113.488;2023-12-29T00:07:48;-16.41;71.42
60242;SHT30;46103;52.076;113.488;2023-12-29T00:11:15;-16.34;71.82
60242;SHT30;46103;52.076;113.488;2023-12-29T00:14:40;-16.23;73.17
60242;SHT30;46103;52.076;113.488;2023-12-29T00:18:14;-16.13;74.03
60242;SHT30;46103;52.076;113.488;2023-12-29T00:21:37;-16.04;73.87
60242;SHT30;46103;52.076;113.488;2023-12-29T00:24:58;-16.00;73.47
60242;SHT30;46103;52.076;113.488;2023-12-29T00:28:25;-15.96;71.78
60242;SHT30;46103;52.076;113.488;2023-12-29T00:31:56;-15.85;72.92
60242;SHT30;46103;52.076;113.488;2023-12-29T00:35:09;-15.81;73.51
60242;SHT30;46103;52.076;113.488;2023-12-29T00:38:20;-15.74;72.36
60242;SHT30;46103;52.076;113.488;2023-12-29T00:41:27;-15.72;71.66
60242;SHT30;46103;52.076;113.488;2023-12-29T00:44:55;-15.64;71.76
60242;SHT30;46103;52.076;113.488;2023-12-29T00:48:24;-15.58;72.42
60242;SHT30;46103;52.076;113.488;2023-12-29T00:51:39;-15.53;72.52
60242;SHT30;46103;52.076;113.488;2023-12-29T00:55:19;-15.51;71.98
60242;SHT30;46103;52.076;113.488;2023-12-29T00:58:28;-15.44;71.22
60242;SHT30;46103;52.076;113.488;2023-12-29T01:01:50;-15.34;70.89
60242;SHT30;46103;52.076;113.488;2023-12-29T01:04:57;-15.28;71.36
60242;SHT30;46103;52.076;113.488;2023-12-29T01:08:04;-15.22;71.68
60242;SHT30;46103;52.076;113.488;2023-12-29T01:11:14;-15.12;71.78
60242;SHT30;46103;52.076;113.488;2023-12-29T01:14:33;-15.06;72.04
60242;SHT30;46103;52.076;113.488;2023-12-29T01:17:48;-15.07;72.65
60242;SHT30;46103;52.076;113.488;2023-12-29T01:21:26;-15.02;73.00
60242;SHT30;46103;52.076;113.488;2023-12-29T01:24:45;-15.05;72.63
60242;SHT30;46103;52.076;113.488;2023-12-29T01:28:06;-15.12;72.21
60242;SHT30;46103;52.076;113.488;2023-12-29T01:31:14;-15.19;72.11
60242;SHT30;46103;52.076;113.488;2023-12-29T01:34:57;-15.26;71.87
60242;SHT30;46103;52.076;113.488;2023-12-29T01:38:55;-15.23;71.62
60242;SHT30;46103;52.076;113.488;2023-12-29T01:43:09;-15.22;70.64
60242;SHT30;46103;52.076;113.488;2023-12-29T01:47:32;-15.19;69.70
60242;SHT30;46103;52.076;113.488;2023-12-29T01:51:18;-15.15;68.16
60242;SHT30;46103;52.076;113.488;2023-12-29T01:54:34;-15.02;67.79
60242;SHT30;46103;52.076;113.488;2023-12-29T01:57:42;-14.89;67.78
60242;SHT30;46103;52.076;113.488;2023-12-29T02:01:03;-14.85;67.50
60242;SHT30;46103;52.076;113.488;2023-12-29T02:04:15;-14.79;67.23
60242;SHT30;46103;52.076;113.488;2023-12-29T02:07:44;-14.81;66.77
60242;SHT30;46103;52.076;113.488;2023-12-29T02:11:05;-14.81;66.60
60242;SHT30;46103;52.076;113.488;2023-12-29T02:14:25;-14.74;67.52
60242;SHT30;46103;52.076;113.488;2023-12-29T02:17:42;-14.68;68.06
60242;SHT30;46103;52.076;113.488;2023-12-29T02:20:57;-14.56;67.66
60242;SHT30;46103;52.076;113.488;2023-12-29T02:24:22;-14.46;67.44
60242;SHT30;46103;52.076;113.488;2023-12-29T02:27:49;-14.34;67.25
60242;SHT30;46103;52.076;113.488;2023-12-29T02:31:11;-14.28;67.19
60242;SHT30;46103;52.076;113.488;2023-12-29T02:34:21;-14.18;67.28
60242;SHT30;46103;52.076;113.488;2023-12-29T02:37:29;-14.08;67.01
60242;SHT30;46103;52.076;113.488;2023-12-29T02:40:40;-14.01;66.39
60242;SHT30;46103;52.076;113.488;2023-12-29T02:43:47;-14.10;65.39
60242;SHT30;46103;52.076;113.488;2023-12-29T02:46:52;-14.37;65.59
60242;SHT30;46103;52.076;113.488;2023-12-29T02:49:55;-14.48;66.15
60242;SHT30;46103;52.076;113.488;2023-12-29T02:52:59;-14.57;66.66
60242;SHT30;46103;52.076;113.488;2023-12-29T02:56:05;-14.50;67.59
60242;SHT30;46103;52.076;113.488;2023-12-29T02:59:09;-14.48;67.68
60242;SHT30;46103;52.076;113.488;2023-12-29T03:02:13;-14.32;67.90
60242;SHT30;46103;52.076;113.488;2023-12-29T03:05:28;-14.15;67.25
60242;SHT30;46103;52.076;113.488;2023-12-29T03:08:48;-13.93;66.42
60242;SHT30;46103;52.076;113.488;2023-12-29T03:11:53;-13.86;65.63
60242;SHT30;46103;52.076;113.488;2023-12-29T03:15:00;-13.79;65.22
60242;SHT30;46103;52.076;113.488;2023-12-29T03:18:04;-13.60;65.79
60242;SHT30;46103;52.076;113.488;2023-12-29T03:21:10;-13.46;65.54
60242;SHT30;46103;52.076;113.488;2023-12-29T03:24:14;-13.26;65.58
60242;SHT30;46103;52.076;113.488;2023-12-29T03:27:18;-13.11;65.50
60242;SHT30;46103;52.076;113.488;2023-12-29T03:30:24;-13.01;65.61
60242;SHT30;46103;52.076;113.488;2023-12-29T03:33:28;-12.88;65.50
60242;SHT30;46103;52.076;113.488;2023-12-29T03:36:44;-12.67;65.13
60242;SHT30;46103;52.076;113.488;2023-12-29T03:39:48;-12.59;64.55
60242;SHT30;46103;52.076;113.488;2023-12-29T03:42:53;-12.71;64.41
60242;SHT30;46103;52.076;113.488;2023-12-29T03:45:57;-12.67;64.84
60242;SHT30;46103;52.076;113.488;2023-12-29T03:49:02;-12.56;65.21
60242;SHT30;46103;52.076;113.488;2023-12-29T03:52:06;-12.42;64.87
60242;SHT30;46103;52.076;113.488;2023-12-29T03:55:10;-12.29;64.13
60242;SHT30;46103;52.076;113.488;2023-12-29T03:58:14;-12.16;63.97
60242;SHT30;46103;52.076;113.488;2023-12-29T04:01:19;-11.92;63.65
60242;SHT30;46103;52.076;113.488;2023-12-29T04:04:23;-11.71;62.90
60242;SHT30;46103;52.076;113.488;2023-12-29T04:07:27;-11.56;62.28
60242;SHT30;46103;52.076;113.488;2023-12-29T04:10:31;-11.50;60.93
60242;SHT30;46103;52.076;113.488;2023-12-29T04:13:34;-11.66;60.38
60242;SHT30;46103;52.076;113.488;2023-12-29T04:16:39;-11.74;61.27
60242;SHT30;46103;52.076;113.488;2023-12-29T04:19:48;-11.77;61.47
60242;SHT30;46103;52.076;113.488;2023-12-29T04:22:54;-11.97;61.46
60242;SHT30;46103;52.076;113.488;2023-12-29T04:26:02;-12.22;62.08
60242;SHT30;46103;52.076;113.488;2023-12-29T04:29:08;-12.37;63.37
60242;SHT30;46103;52.076;113.488;2023-12-29T04:32:13;-12.36;64.16
60242;SHT30;46103;52.076;113.488;2023-12-29T04:35:18;-12.11;64.29
60242;SHT30;46103;52.076;113.488;2023-12-29T04:38:29;-11.99;63.52
60242;SHT30;46103;52.076;113.488;2023-12-29T04:41:33;-11.90;63.40
60242;SHT30;46103;52.076;113.488;2023-12-29T04:44:38;-11.78;63.27
60242;SHT30;46103;52.076;113.488;2023-12-29T04:47:42;-11.50;63.36
60242;SHT30;46103;52.076;113.488;2023-12-29T04:50:48;-11.38;62.31
60242;SHT30;46103;52.076;113.488;2023-12-29T04:54:06;-11.33;61.60
60242;SHT30;46103;52.076;113.488;2023-12-29T04:57:27;-11.39;61.78
60242;SHT30;46103;52.076;113.488;2023-12-29T05:00:30;-11.31;61.97
60242;SHT30;46103;52.076;113.488;2023-12-29T05:03:35;-11.18;61.94
60242;SHT30;46103;52.076;113.488;2023-12-29T05:06:40;-11.14;61.78
60242;SHT30;46103;52.076;113.488;2023-12-29T05:09:46;-10.95;61.32
60242;SHT30;46103;52.076;113.488;2023-12-29T05:12:52;-11.00;61.31
60242;SHT30;46103;52.076;113.488;2023-12-29T05:15:57;-10.88;61.96
60242;SHT30;46103;52.076;113.488;2023-12-29T05:19:03;-10.89;61.23
60242;SHT30;46103;52.076;113.488;2023-12-29T05:22:09;-11.07;61.41
60242;SHT30;46103;52.076;113.488;2023-12-29T05:25:16;-11.21;61.10
60242;SHT30;46103;52.076;113.488;2023-12-29T05:28:23;-11.52;61.06
60242;SHT30;46103;52.076;113.488;2023-12-29T05:31:29;-11.50;62.08
60242;SHT30;46103;52.076;113.488;2023-12-29T05:34:36;-11.40;61.63
60242;SHT30;46103;52.076;113.488;2023-12-29T05:37:41;-11.50;61.47
60242;SHT30;46103;52.076;113.488;2023-12-29T05:40:47;-11.40;61.78
60242;SHT30;46103;52.076;113.488;2023-12-29T05:43:52;-11.32;62.32
60242;SHT30;46103;52.076;113.488;2023-12-29T05:46:59;-11.26;61.93
60242;SHT30;46103;52.076;113.488;2023-12-29T05:50:05;-11.05;62.30
60242;SHT30;46103;52.076;113.488;2023-12-29T05:53:11;-10.87;61.69
60242;SHT30;46103;52.076;113.488;2023-12-29T05:56:23;-10.85;60.84
60242;SHT30;46103;52.076;113.488;2023-12-29T05:59:28;-10.80;60.72
60242;SHT30;46103;52.076;113.488;2023-12-29T06:02:35;-10.85;60.23
60242;SHT30;46103;52.076;113.488;2023-12-29T06:05:40;-10.84;60.37
60242;SHT30;46103;52.076;113.488;2023-12-29T06:08:51;-10.66;60.89
60242;SHT30;46103;52.076;113.488;2023-12-29T06:11:57;-10.53;59.55
60242;SHT30;46103;52.076;113.488;2023-12-29T06:15:04;-10.42;59.06
60242;SHT30;46103;52.076;113.488;2023-12-29T06:18:10;-10.26;58.67
60242;SHT30;46103;52.076;113.488;2023-12-29T06:21:16;-10.12;58.16
60242;SHT30;46103;52.076;113.488;2023-12-29T06:24:19;-10.05;57.78
60242;SHT30;46103;52.076;113.488;2023-12-29T06:27:25;-9.90;57.68
60242;SHT30;46103;52.076;113.488;2023-12-29T06:30:29;-9.75;57.56
60242;SHT30;46103;52.076;113.488;2023-12-29T06:33:32;-9.67;56.39
60242;SHT30;46103;52.076;113.488;2023-12-29T06:36:36;-9.93;56.16
60242;SHT30;46103;52.076;113.488;2023-12-29T06:39:40;-10.11;56.61
60242;SHT30;46103;52.076;113.488;2023-12-29T06:42:44;-10.21;57.29
60242;SHT30;46103;52.076;113.488;2023-12-29T06:45:48;-10.37;57.58
60242;SHT30;46103;52.076;113.488;2023-12-29T06:48:51;-10.53;58.39
60242;SHT30;46103;52.076;113.488;2023-12-29T06:51:58;-10.68;58.62
60242;SHT30;46103;52.076;113.488;2023-12-29T06:55:05;-10.78;59.97
60242;SHT30;46103;52.076;113.488;2023-12-29T06:58:11;-10.81;59.76
60242;SHT30;46103;52.076;113.488;2023-12-29T07:01:17;-11.19;59.61
60242;SHT30;46103;52.076;113.488;2023-12-29T07:04:24;-11.42;60.22
60242;SHT30;46103;52.076;113.488;2023-12-29T07:07:30;-11.54;61.53
60242;SHT30;46103;52.076;113.488;2023-12-29T07:10:36;-11.57;61.24
60242;SHT30;46103;52.076;113.488;2023-12-29T07:13:42;-11.66;61.22
60242;SHT30;46103;52.076;113.488;2023-12-29T07:16:48;-11.71;61.36
60242;SHT30;46103;52.076;113.488;2023-12-29T07:19:54;-11.95;61.45
60242;SHT30;46103;52.076;113.488;2023-12-29T07:23:01;-12.07;61.92
60242;SHT30;46103;52.076;113.488;2023-12-29T07:26:07;-12.02;62.81
60242;SHT30;46103;52.076;113.488;2023-12-29T07:29:14;-12.03;62.77
60242;SHT30;46103;52.076;113.488;2023-12-29T07:32:20;-11.98;63.34
60242;SHT30;46103;52.076;113.488;2023-12-29T07:35:27;-12.01;62.95
60242;SHT30;46103;52.076;113.488;2023-12-29T07:38:33;-12.15;62.69
60242;SHT30;46103;52.076;113.488;2023-12-29T07:41:41;-12.24;63.42
60242;SHT30;46103;52.076;113.488;2023-12-29T07:44:47;-12.40;63.58
60242;SHT30;46103;52.076;113.488;2023-12-29T07:47:53;-12.59;64.89
60242;SHT30;46103;52.076;113.488;2023-12-29T07:51:06;-12.84;65.06
60242;SHT30;46103;52.076;113.488;2023-12-29T07:54:13;-12.88;66.06
60242;SHT30;46103;52.076;113.488;2023-12-29T07:57:19;-13.01;65.87
60242;SHT30;46103;52.076;113.488;2023-12-29T08:00:23;-13.08;66.25
60242;SHT30;46103;52.076;113.488;2023-12-29T08:03:26;-13.12;66.54
60242;SHT30;46103;52.076;113.488;2023-12-29T08:06:30;-13.04;66.31
60242;SHT30;46103;52.076;113.488;2023-12-29T08:09:33;-12.98;66.04
60242;SHT30;46103;52.076;113.488;2023-12-29T08:12:37;-12.94;66.02
60242;SHT30;46103;52.076;113.488;2023-12-29T08:15:41;-12.84;66.02
60242;SHT30;46103;52.076;113.488;2023-12-29T08:18:48;-12.75;65.57
60242;SHT30;46103;52.076;113.488;2023-12-29T08:21:55;-12.80;65.33
60242;SHT30;46103;52.076;113.488;2023-12-29T08:24:59;-12.80;65.75
60242;SHT30;46103;52.076;113.488;2023-12-29T08:28:04;-12.80;65.94
60242;SHT30;46103;52.076;113.488;2023-12-29T08:31:09;-12.70;66.17
60242;SHT30;46103;52.076;113.488;2023-12-29T08:34:12;-12.60;65.93
60242;SHT30;46103;52.076;113.488;2023-12-29T08:37:17;-12.47;66.10
60242;SHT30;46103;52.076;113.488;2023-12-29T08:40:25;-12.39;65.98
60242;SHT30;46103;52.076;113.488;2023-12-29T08:43:29;-12.26;65.65
60242;SHT30;46103;52.076;113.488;2023-12-29T08:46:33;-12.22;65.00
60242;SHT30;46103;52.076;113.488;2023-12-29T08:49:37;-12.33;64.83
60242;SHT30;46103;52.076;113.488;2023-12-29T08:52:41;-12.39;65.25
60242;SHT30;46103;52.076;113.488;2023-12-29T08:55:45;-12.47;65.91
60242;SHT30;46103;52.076;113.488;2023-12-29T08:58:48;-12.43;66.16
60242;SHT30;46103;52.076;113.488;2023-12-29T09:01:53;-12.43;65.87
60242;SHT30;46103;52.076;113.488;2023-12-29T09:04:57;-12.49;65.59
60242;SHT30;46103;52.076;113.488;2023-12-29T09:08:00;-12.53;65.50
60242;SHT30;46103;52.076;113.488;2023-12-29T09:11:05;-12.60;65.80
60242;SHT30;46103;52.076;113.488;2023-12-29T09:14:08;-12.61;65.87
60242;SHT30;46103;52.076;113.488;2023-12-29T09:17:12;-12.56;65.33
60242;SHT30;46103;52.076;113.488;2023-12-29T09:20:16;-12.53;65.04
60242;SHT30;46103;52.076;113.488;2023-12-29T09:23:21;-12.52;64.98
60242;SHT30;46103;52.076;113.488;2023-12-29T09:26:40;-12.67;66.34
60242;SHT30;46103;52.076;113.488;2023-12-29T09:29:51;-12.71;66.78
60242;SHT30;46103;52.076;113.488;2023-12-29T09:33:20;-12.57;66.40
60242;SHT30;46103;52.076;113.488;2023-12-29T09:36:27;-12.64;65.57
60242;SHT30;46103;52.076;113.488;2023-12-29T09:39:31;-12.80;66.47
60242;SHT30;46103;52.076;113.488;2023-12-29T09:42:35;-12.77;66.52
60242;SHT30;46103;52.076;113.488;2023-12-29T09:45:51;-12.74;66.43
60242;SHT30;46103;52.076;113.488;2023-12-29T09:48:57;-12.71;66.03
60242;SHT30;46103;52.076;113.488;2023-12-29T09:52:12;-12.83;65.56
60242;SHT30;46103;52.076;113.488;2023-12-29T09:55:19;-12.94;65.54
60242;SHT30;46103;52.076;113.488;2023-12-29T09:58:24;-12.96;65.85
60242;SHT30;46103;52.076;113.488;2023-12-29T10:01:28;-13.04;65.78
60242;SHT30;46103;52.076;113.488;2023-12-29T10:04:34;-13.20;66.45
60242;SHT30;46103;52.076;113.488;2023-12-29T10:07:39;-13.51;67.97
60242;SHT30;46103;52.076;113.488;2023-12-29T10:10:44;-13.50;68.51
60242;SHT30;46103;52.076;113.488;2023-12-29T10:13:53;-13.48;67.93
60242;SHT30;46103;52.076;113.488;2023-12-29T10:17:12;-13.47;67.59
60242;SHT30;46103;52.076;113.488;2023-12-29T10:20:52;-13.44;67.19
60242;SHT30;46103;52.076;113.488;2023-12-29T10:24:21;-13.44;66.52
60242;SHT30;46103;52.076;113.488;2023-12-29T10:27:43;-13.47;66.15
60242;SHT30;46103;52.076;113.488;2023-12-29T10:30:48;-13.47;66.14
60242;SHT30;46103;52.076;113.488;2023-12-29T10:33:52;-13.47;65.92
60242;SHT30;46103;52.076;113.488;2023-12-29T10:36:56;-13.50;65.73
60242;SHT30;46103;52.076;113.488;2023-12-29T10:40:01;-13.50;65.61
60242;SHT30;46103;52.076;113.488;2023-12-29T10:43:05;-13.54;65.74
60242;SHT30;46103;52.076;113.488;2023-12-29T10:46:12;-13.57;65.96
60242;SHT30;46103;52.076;113.488;2023-12-29T10:49:17;-13.60;66.04
60242;SHT30;46103;52.076;113.488;2023-12-29T10:52:23;-13.57;68.80
60242;SHT30;46103;52.076;113.488;2023-12-29T10:55:32;-13.64;68.71
60242;SHT30;46103;52.076;113.488;2023-12-29T10:58:36;-13.65;66.99
60242;SHT30;46103;52.076;113.488;2023-12-29T11:01:41;-13.71;66.60
60242;SHT30;46103;52.076;113.488;2023-12-29T11:04:48;-13.77;66.27
60242;SHT30;46103;52.076;113.488;2023-12-29T11:07:55;-13.83;65.75
60242;SHT30;46103;52.076;113.488;2023-12-29T11:10:59;-13.95;65.41
60242;SHT30;46103;52.076;113.488;2023-12-29T11:14:04;-14.01;65.67
60242;SHT30;46103;52.076;113.488;2023-12-29T11:17:09;-14.09;65.66
60242;SHT30;46103;52.076;113.488;2023-12-29T11:20:18;-14.13;65.66
60242;SHT30;46103;52.076;113.488;2023-12-29T11:23:24;-14.18;65.09
60242;SHT30;46103;52.076;113.488;2023-12-29T11:26:34;-14.22;65.04
60242;SHT30;46103;52.076;113.488;2023-12-29T11:30:07;-14.22;64.93
60242;SHT30;46103;52.076;113.488;2023-12-29T11:33:38;-14.28;64.88
60242;SHT30;46103;52.076;113.488;2023-12-29T11:38:03;-14.40;65.61
60242;SHT30;46103;52.076;113.488;2023-12-29T11:42:31;-14.48;66.40
60242;SHT30;46103;52.076;113.488;2023-12-29T11:57:49;-14.37;66.16
60242;SHT30;46103;52.076;113.488;2023-12-29T12:01:36;-14.43;65.88
60242;SHT30;46103;52.076;113.488;2023-12-29T12:04:43;-14.43;66.34
60242;SHT30;46103;52.076;113.488;2023-12-29T12:08:27;-14.40;66.40
60242;SHT30;46103;52.076;113.488;2023-12-29T12:12:03;-14.37;66.18
60242;SHT30;46103;52.076;113.488;2023-12-29T12:15:45;-14.37;66.36
60242;SHT30;46103;52.076;113.488;2023-12-29T12:19:10;-14.44;66.10
60242;SHT30;46103;52.076;113.488;2023-12-29T12:22:18;-14.48;65.95
60242;SHT30;46103;52.076;113.488;2023-12-29T12:26:09;-14.56;65.84
60242;SHT30;46103;52.076;113.488;2023-12-29T12:29:45;-14.57;66.26
60242;SHT30;46103;52.076;113.488;2023-12-29T12:32:58;-14.64;67.05
60242;SHT30;46103;52.076;113.488;2023-12-29T12:36:12;-14.65;67.21
60242;SHT30;46103;52.076;113.488;2023-12-29T12:39:20;-14.67;67.19
60242;SHT30;46103;52.076;113.488;2023-12-29T12:42:51;-14.71;67.82
60242;SHT30;46103;52.076;113.488;2023-12-29T12:46:00;-14.69;68.00
60242;SHT30;46103;52.076;113.488;2023-12-29T12:49:09;-14.65;68.20
60242;SHT30;46103;52.076;113.488;2023-12-29T12:52:23;-14.68;68.35
60242;SHT30;46103;52.076;113.488;2023-12-29T12:55:48;-14.63;68.79
60242;SHT30;46103;52.076;113.488;2023-12-29T12:59:02;-14.61;69.00
60242;SHT30;46103;52.076;113.488;2023-12-29T13:02:41;-14.46;68.78
60242;SHT30;46103;52.076;113.488;2023-12-29T13:05:57;-14.37;68.37
60242;SHT30;46103;52.076;113.488;2023-12-29T13:09:11;-14.37;67.99
60242;SHT30;46103;52.076;113.488;2023-12-29T13:13:04;-14.40;67.39
60242;SHT30;46103;52.076;113.488;2023-12-29T13:16:11;-14.39;66.72
60242;SHT30;46103;52.076;113.488;2023-12-29T13:19:24;-14.46;66.40
60242;SHT30;46103;52.076;113.488;2023-12-29T13:22:28;-14.50;66.10
60242;SHT30;46103;52.076;113.488;2023-12-29T13:25:35;-14.48;66.51
60242;SHT30;46103;52.076;113.488;2023-12-29T13:28:41;-14.48;66.26
60242;SHT30;46103;52.076;113.488;2023-12-29T13:31:46;-14.47;66.10
60242;SHT30;46103;52.076;113.488;2023-12-29T13:41:26;-14.34;65.74
60242;SHT30;46103;52.076;113.488;2023-12-29T13:44:31;-14.30;65.70
60242;SHT30;46103;52.076;113.488;2023-12-29T13:47:37;-14.26;65.39
60242;SHT30;46103;52.076;113.488;2023-12-29T13:50:49;-14.19;65.28
60242;SHT30;46103;52.076;113.488;2023-12-29T13:54:02;-14.09;64.95
60242;SHT30;46103;52.076;113.488;2023-12-29T13:57:05;-14.03;64.71
60242;SHT30;46103;52.076;113.488;2023-12-29T14:00:19;-14.02;64.39
60242;SHT30;46103;52.076;113.488;2023-12-29T14:03:43;-13.98;64.37
60242;SHT30;46103;52.076;113.488;2023-12-29T14:06:58;-13.96;64.06
60242;SHT30;46103;52.076;113.488;2023-12-29T14:10:03;-13.95;64.02
60242;SHT30;46103;52.076;113.488;2023-12-29T14:13:11;-14.03;64.21
60242;SHT30;46103;52.076;113.488;2023-12-29T14:16:15;-14.20;65.25
60242;SHT30;46103;52.076;113.488;2023-12-29T14:19:23;-14.16;65.35
60242;SHT30;46103;52.076;113.488;2023-12-29T14:22:27;-14.22;65.26
60242;SHT30;46103;52.076;113.488;2023-12-29T14:25:34;-14.20;65.13
60242;SHT30;46103;52.076;113.488;2023-12-29T14:28:42;-14.26;64.55
60242;SHT30;46103;52.076;113.488;2023-12-29T14:31:46;-14.28;64.08
60242;SHT30;46103;52.076;113.488;2023-12-29T14:34:51;-14.33;64.06
60242;SHT30;46103;52.076;113.488;2023-12-29T14:38:00;-14.37;64.56
60242;SHT30;46103;52.076;113.488;2023-12-29T14:41:04;-14.37;64.64
60242;SHT30;46103;52.076;113.488;2023-12-29T14:44:08;-14.37;64.18
60242;SHT30;46103;52.076;113.488;2023-12-29T14:47:14;-14.36;63.68
60242;SHT30;46103;52.076;113.488;2023-12-29T14:50:20;-14.39;63.61
60242;SHT30;46103;52.076;113.488;2023-12-29T14:53:24;-14.37;63.98
60242;SHT30;46103;52.076;113.488;2023-12-29T14:56:29;-14.40;64.26
60242;SHT30;46103;52.076;113.488;2023-12-29T14:59:33;-14.46;65.10
60242;SHT30;46103;52.076;113.488;2023-12-29T15:02:38;-14.51;65.68
60242;SHT30;46103;52.076;113.488;2023-12-29T15:05:43;-14.53;66.06
60242;SHT30;46103;52.076;113.488;2023-12-29T15:08:46;-14.56;65.62
60242;SHT30;46103;52.076;113.488;2023-12-29T15:11:49;-14.48;65.43
60242;SHT30;46103;52.076;113.488;2023-12-29T15:14:55;-14.40;65.01
60242;SHT30;46103;52.076;113.488;2023-12-29T15:17:59;-14.34;64.89
60242;SHT30;46103;52.076;113.488;2023-12-29T15:21:06;-14.29;64.83
60242;SHT30;46103;52.076;113.488;2023-12-29T15:24:46;-14.25;64.69
60242;SHT30;46103;52.076;113.488;2023-12-29T15:28:19;-14.23;64.95
60242;SHT30;46103;52.076;113.488;2023-12-29T15:31:23;-14.22;65.04
60242;SHT30;46103;52.076;113.488;2023-12-29T15:34:30;-14.18;65.09
60242;SHT30;46103;52.076;113.488;2023-12-29T15:37:33;-14.23;65.32
60242;SHT30;46103;52.076;113.488;2023-12-29T15:40:37;-14.25;65.55
60242;SHT30;46103;52.076;113.488;2023-12-29T15:43:40;-14.22;65.92
60242;SHT30;46103;52.076;113.488;2023-12-29T15:46:45;-14.10;66.16
60242;SHT30;46103;52.076;113.488;2023-12-29T15:49:51;-14.03;65.88
60242;SHT30;46103;52.076;113.488;2023-12-29T15:52:55;-13.93;66.29
60242;SHT30;46103;52.076;113.488;2023-12-29T15:55:59;-13.78;66.44
60242;SHT30;46103;52.076;113.488;2023-12-29T15:59:06;-13.71;66.35
60242;SHT30;46103;52.076;113.488;2023-12-29T16:02:09;-13.68;65.72
60242;SHT30;46103;52.076;113.488;2023-12-29T16:05:14;-13.63;64.86
60242;SHT30;46103;52.076;113.488;2023-12-29T16:08:18;-13.55;64.57
60242;SHT30;46103;52.076;113.488;2023-12-29T16:11:26;-13.50;64.53
60242;SHT30;46103;52.076;113.488;2023-12-29T16:14:31;-13.42;64.33
60242;SHT30;46103;52.076;113.488;2023-12-29T16:17:36;-13.39;64.12
60242;SHT30;46103;52.076;113.488;2023-12-29T16:20:40;-13.33;63.82
60242;SHT30;46103;52.076;113.488;2023-12-29T16:23:44;-13.30;63.66
60242;SHT30;46103;52.076;113.488;2023-12-29T16:26:48;-13.51;63.09
60242;SHT30;46103;52.076;113.488;2023-12-29T16:29:54;-13.70;63.33
60242;SHT30;46103;52.076;113.488;2023-12-29T16:32:57;-13.70;63.80
60242;SHT30;46103;52.076;113.488;2023-12-29T16:39:12;-13.89;63.36
60242;SHT30;46103;52.076;113.488;2023-12-29T16:42:16;-14.05;63.78
60242;SHT30;46103;52.076;113.488;2023-12-29T16:45:21;-14.23;64.76
60242;SHT30;46103;52.076;113.488;2023-12-29T16:48:24;-14.30;65.85
60242;SHT30;46103;52.076;113.488;2023-12-29T16:51:28;-14.40;66.18
60242;SHT30;46103;52.076;113.488;2023-12-29T16:54:31;-14.26;66.53
60242;SHT30;46103;52.076;113.488;2023-12-29T16:57:38;-14.06;65.93
60242;SHT30;46103;52.076;113.488;2023-12-29T17:00:42;-13.91;65.44
60242;SHT30;46103;52.076;113.488;2023-12-29T17:03:46;-13.79;65.00
60242;SHT30;46103;52.076;113.488;2023-12-29T17:06:51;-13.71;64.68
60242;SHT30;46103;52.076;113.488;2023-12-29T17:09:55;-13.67;64.62
60242;SHT30;46103;52.076;113.488;2023-12-29T17:12:59;-13.55;64.54
60242;SHT30;46103;52.076;113.488;2023-12-29T17:16:03;-13.46;64.41
60242;SHT30;46103;52.076;113.488;2023-12-29T17:19:09;-13.40;64.05
60242;SHT30;46103;52.076;113.488;2023-12-29T17:22:13;-13.47;63.93
60242;SHT30;46103;52.076;113.488;2023-12-29T17:25:19;-13.37;64.29
60242;SHT30;46103;52.076;113.488;2023-12-29T17:28:22;-13.34;64.09
60242;SHT30;46103;52.076;113.488;2023-12-29T17:31:27;-13.23;64.12
60242;SHT30;46103;52.076;113.488;2023-12-29T17:34:30;-13.16;64.01
60242;SHT30;46103;52.076;113.488;2023-12-29T17:37:35;-13.13;63.79
60242;SHT30;46103;52.076;113.488;2023-12-29T17:40:38;-13.08;63.62
60242;SHT30;46103;52.076;113.488;2023-12-29T17:43:42;-13.04;63.87
60242;SHT30;46103;52.076;113.488;2023-12-29T17:46:46;-12.95;63.61
60242;SHT30;46103;52.076;113.488;2023-12-29T17:49:50;-12.88;63.68
60242;SHT30;46103;52.076;113.488;2023-12-29T17:52:54;-12.95;63.34
60242;SHT30;46103;52.076;113.488;2023-12-29T17:55:58;-13.06;63.44
60242;SHT30;46103;52.076;113.488;2023-12-29T17:59:06;-13.05;63.79
60242;SHT30;46103;52.076;113.488;2023-12-29T18:02:13;-13.09;63.95
60242;SHT30;46103;52.076;113.488;2023-12-29T18:05:16;-13.16;64.18
60242;SHT30;46103;52.076;113.488;2023-12-29T18:08:21;-13.18;64.03
60242;SHT30;46103;52.076;113.488;2023-12-29T18:11:25;-13.23;64.05
60242;SHT30;46103;52.076;113.488;2023-12-29T18:14:40;-13.39;63.60
60242;SHT30;46103;52.076;113.488;2023-12-29T18:17:44;-13.47;64.07
60242;SHT30;46103;52.076;113.488;2023-12-29T18:20:50;-13.68;64.34
60242;SHT30;46103;52.076;113.488;2023-12-29T18:23:54;-13.71;64.88
60242;SHT30;46103;52.076;113.488;2023-12-29T18:26:58;-13.77;65.03
60242;SHT30;46103;52.076;113.488;2023-12-29T18:30:01;-13.71;65.28
60242;SHT30;46103;52.076;113.488;2023-12-29T18:33:09;-13.68;65.07
60242;SHT30;46103;52.076;113.488;2023-12-29T18:36:13;-13.63;65.20
60242;SHT30;46103;52.076;113.488;2023-12-29T18:39:19;-13.53;64.95
60242;SHT30;46103;52.076;113.488;2023-12-29T18:42:22;-13.46;65.04
60242;SHT30;46103;52.076;113.488;2023-12-29T18:45:26;-13.33;64.96
60242;SHT30;46103;52.076;113.488;2023-12-29T18:48:30;-13.26;64.84
60242;SHT30;46103;52.076;113.488;2023-12-29T18:51:34;-13.15;64.68
60242;SHT30;46103;52.076;113.488;2023-12-29T18:54:37;-13.08;64.79
60242;SHT30;46103;52.076;113.488;2023-12-29T18:57:41;-12.96;64.42
60242;SHT30;46103;52.076;113.488;2023-12-29T19:00:45;-12.94;64.06
60242;SHT30;46103;52.076;113.488;2023-12-29T19:03:50;-12.89;63.78
60242;SHT30;46103;52.076;113.488;2023-12-29T19:06:53;-12.87;63.78
60242;SHT30;46103;52.076;113.488;2023-12-29T19:09:57;-12.80;63.70
60242;SHT30;46103;52.076;113.488;2023-12-29T19:13:00;-12.78;63.48
60242;SHT30;46103;52.076;113.488;2023-12-29T19:16:04;-12.74;63.49
60242;SHT30;46103;52.076;113.488;2023-12-29T19:19:08;-12.71;63.20
60242;SHT30;46103;52.076;113.488;2023-12-29T19:22:11;-12.73;63.04
60242;SHT30;46103;52.076;113.488;2023-12-29T19:25:16;-12.70;63.11
60242;SHT30;46103;52.076;113.488;2023-12-29T19:28:19;-12.73;62.99